createdAt,value
2023-05-10T00:00:55.651Z,1.30
2023-05-10T00:02:57.548Z,1.27
2023-05-10T00:04:59.250Z,1.13
2023-05-10T00:07:00.858Z,1.50
2023-05-10T00:09:02.460Z,1.42
2023-05-10T00:11:04.063Z,1.63
2023-05-10T00:13:05.676Z,1.75
2023-05-10T00:15:08.090Z,1.65
2023-05-10T00:17:09.704Z,2.53
2023-05-10T00:19:11.424Z,3.05
2023-05-10T00:21:13.239Z,4.55
2023-05-10T00:23:14.768Z,5.18
2023-05-10T00:25:16.416Z,4.25
2023-05-10T00:27:18.002Z,4.28
2023-05-10T00:29:20.548Z,5.13
2023-05-10T00:31:22.351Z,5.85
2023-05-10T00:33:24.088Z,5.53
2023-05-10T00:35:25.641Z,5.28
2023-05-10T00:37:27.256Z,3.67
2023-05-10T00:39:29.629Z,4.15
2023-05-10T00:41:33.710Z,3.42
2023-05-10T00:43:35.259Z,3.75
2023-05-10T00:45:38.141Z,2.92
2023-05-10T00:47:40.660Z,2.60
2023-05-10T00:49:42.725Z,2.58
2023-05-10T00:51:45.562Z,2.58
2023-05-10T00:53:47.484Z,2.20
2023-05-10T00:55:52.388Z,2.63
2023-05-10T00:57:54.926Z,2.03
2023-05-10T00:59:56.522Z,2.00
2023-05-10T01:01:59.312Z,1.63
2023-05-10T01:04:01.017Z,1.92
2023-05-10T01:06:02.920Z,1.65
2023-05-10T01:08:04.661Z,1.70
2023-05-10T01:10:10.207Z,2.10
2023-05-10T01:12:12.335Z,1.55
2023-05-10T01:14:14.520Z,1.70
2023-05-10T01:16:16.383Z,1.95
2023-05-10T01:18:21.631Z,1.80
2023-05-10T01:20:24.366Z,1.70
2023-05-10T01:22:32.207Z,1.90
2023-05-10T01:24:36.532Z,2.03
2023-05-10T01:26:44.076Z,2.33
2023-05-10T01:29:04.428Z,2.50
2023-05-10T01:31:31.811Z,2.30
2023-05-10T01:34:12.888Z,2.95
2023-05-10T01:36:20.464Z,3.60
2023-05-10T01:38:35.997Z,3.63
2023-05-10T01:40:43.680Z,3.67
2023-05-10T01:42:53.439Z,3.30
2023-05-10T01:45:01.152Z,3.40
2023-05-10T01:47:07.308Z,3.13
2023-05-10T01:49:19.954Z,3.72
2023-05-10T01:51:26.421Z,3.63
2023-05-10T01:53:28.921Z,3.75
2023-05-10T01:55:35.552Z,3.45
2023-05-10T01:57:40.602Z,3.40
2023-05-10T01:59:46.455Z,3.30
2023-05-10T02:01:49.865Z,3.30
2023-05-10T02:03:52.882Z,3.28
2023-05-10T02:05:56.162Z,3.15
2023-05-10T02:07:59.905Z,3.35
2023-05-10T02:10:02.726Z,3.40
2023-05-10T02:12:07.246Z,3.60
2023-05-10T02:14:11.326Z,3.55
2023-05-10T02:16:14.995Z,4.07
2023-05-10T02:18:17.874Z,3.67
2023-05-10T02:20:20.509Z,4.03
2023-05-10T02:22:23.355Z,4.35
2023-05-10T02:24:26.148Z,4.22
2023-05-10T02:26:28.659Z,4.10
2023-05-10T02:28:32.108Z,3.70
2023-05-10T02:30:35.790Z,4.03
2023-05-10T02:32:38.471Z,3.80
2023-05-10T02:34:41.781Z,3.40
2023-05-10T02:36:44.179Z,3.55
2023-05-10T02:38:47.448Z,3.45
2023-05-10T02:40:49.335Z,3.17
2023-05-10T02:42:53.476Z,2.83
2023-05-10T02:45:02.162Z,2.60
2023-05-10T02:47:04.584Z,2.80
2023-05-10T02:49:06.733Z,2.00
2023-05-10T02:51:09.160Z,1.52
2023-05-10T02:53:15.965Z,1.65
2023-05-10T02:57:27.408Z,1.38
2023-05-10T02:59:29.076Z,1.38
2023-05-10T03:01:30.666Z,1.30
2023-05-10T03:03:32.091Z,1.20
2023-05-10T03:05:34.125Z,1.20
2023-05-10T03:07:36.344Z,1.23
2023-05-10T03:09:37.870Z,1.17
2023-05-10T03:11:57.779Z,1.02
2023-05-10T03:14:31.199Z,1.20
2023-05-10T03:16:47.971Z,0.90
2023-05-10T03:19:01.483Z,1.00
2023-05-10T03:21:07.155Z,1.10
2023-05-10T03:23:20.528Z,1.15
2023-05-10T03:25:23.879Z,1.25
2023-05-10T03:27:28.071Z,1.02
2023-05-10T03:29:31.789Z,1.10
2023-05-10T03:31:33.953Z,1.42
2023-05-10T03:33:35.634Z,1.20
2023-05-10T03:35:37.297Z,1.20
2023-05-10T03:37:39.112Z,1.40
2023-05-10T03:39:40.707Z,1.25
2023-05-10T03:41:42.499Z,1.00
2023-05-10T03:43:44.096Z,1.23
2023-05-10T03:45:45.634Z,1.23
2023-05-10T03:47:47.366Z,1.10
2023-05-10T03:49:48.943Z,1.20
2023-05-10T03:51:50.483Z,1.33
2023-05-10T03:53:52.178Z,1.67
2023-05-10T03:55:53.731Z,1.50
2023-05-10T03:57:55.271Z,1.48
2023-05-10T03:59:56.878Z,2.53
2023-05-10T04:01:58.435Z,2.80
2023-05-10T04:04:00.030Z,2.95
2023-05-10T04:06:08.574Z,3.80
2023-05-10T04:08:10.603Z,4.10
2023-05-10T04:10:12.795Z,4.65
2023-05-10T04:12:14.498Z,5.03
2023-05-10T04:14:16.209Z,5.72
2023-05-10T04:16:17.788Z,5.60
2023-05-10T04:18:19.397Z,5.50
2023-05-10T04:20:21.032Z,6.50
2023-05-10T04:22:22.650Z,6.30
2023-05-10T04:24:24.381Z,5.93
2023-05-10T04:26:26.638Z,6.15
2023-05-10T04:28:28.308Z,6.68
2023-05-10T04:30:30.300Z,6.25
2023-05-10T04:32:32.520Z,6.15
2023-05-10T04:34:35.211Z,6.20
2023-05-10T04:36:37.622Z,6.60
2023-05-10T04:38:39.409Z,6.63
2023-05-10T04:40:41.097Z,6.22
2023-05-10T04:42:42.640Z,6.32
2023-05-10T04:44:44.552Z,6.80
2023-05-10T04:46:47.290Z,7.57
2023-05-10T04:48:48.953Z,6.28
2023-05-10T04:50:50.511Z,7.30
2023-05-10T04:52:53.284Z,7.20
2023-05-10T04:54:54.934Z,7.15
2023-05-10T04:56:56.480Z,7.18
2023-05-10T04:58:57.975Z,6.68
2023-05-10T05:01:06.708Z,6.40
2023-05-10T05:03:08.298Z,6.85
2023-05-10T05:05:09.990Z,6.50
2023-05-10T05:07:11.751Z,6.38
2023-05-10T05:09:13.491Z,6.45
2023-05-10T05:11:15.030Z,6.72
2023-05-10T05:13:16.691Z,6.55
2023-05-10T05:15:18.276Z,7.50
2023-05-10T05:17:19.857Z,6.95
2023-05-10T05:19:21.717Z,7.28
2023-05-10T05:21:23.368Z,8.07
2023-05-10T05:23:25.846Z,7.45
2023-05-10T05:25:27.424Z,7.82
2023-05-10T05:27:29.123Z,8.20
2023-05-10T05:29:30.746Z,8.45
2023-05-10T05:31:32.377Z,7.78
2023-05-10T05:33:34.786Z,8.93
2023-05-10T05:35:36.331Z,9.23
2023-05-10T05:37:38.207Z,9.30
2023-05-10T05:39:39.735Z,10.48
2023-05-10T05:41:41.319Z,9.02
2023-05-10T05:43:42.812Z,9.88
2023-05-10T05:45:44.456Z,10.90
2023-05-10T05:47:46.214Z,10.18
2023-05-10T05:49:48.160Z,10.38
2023-05-10T05:51:51.279Z,11.15
2023-05-10T05:53:52.833Z,11.65
2023-05-10T05:55:58.936Z,11.00
2023-05-10T05:58:00.481Z,11.32
2023-05-10T06:00:02.358Z,11.85
2023-05-10T06:02:03.939Z,12.43
2023-05-10T06:04:05.570Z,12.77
2023-05-10T06:06:07.354Z,13.35
2023-05-10T06:08:08.968Z,14.20
2023-05-10T06:10:11.108Z,12.93
2023-05-10T06:12:12.909Z,13.48
2023-05-10T06:14:14.450Z,14.90
2023-05-10T06:16:15.981Z,13.80
2023-05-10T06:18:17.592Z,14.55
2023-05-10T06:20:19.357Z,14.98
2023-05-10T06:22:21.066Z,14.52
2023-05-10T06:24:22.820Z,14.50
2023-05-10T06:26:24.522Z,14.30
2023-05-10T06:28:26.079Z,15.57
2023-05-10T06:30:30.659Z,14.25
2023-05-10T06:32:32.270Z,14.35
2023-05-10T06:34:33.997Z,15.85
2023-05-10T06:36:35.525Z,14.43
2023-05-10T06:38:37.202Z,15.50
2023-05-10T06:40:42.641Z,16.35
2023-05-10T06:42:46.004Z,16.52
2023-05-10T06:44:47.626Z,15.70
2023-05-10T06:46:49.356Z,14.85
2023-05-10T06:48:50.956Z,15.20
2023-05-10T06:50:52.579Z,15.35
2023-05-10T06:52:54.253Z,16.77
2023-05-10T06:54:55.762Z,15.50
2023-05-10T06:56:57.373Z,14.68
2023-05-10T06:58:59.001Z,16.60
2023-05-10T07:01:06.927Z,16.10
2023-05-10T07:03:08.598Z,15.52
2023-05-10T07:05:10.195Z,15.27
2023-05-10T07:07:11.991Z,16.48
2023-05-10T07:09:14.462Z,16.60
2023-05-10T07:11:16.025Z,15.70
2023-05-10T07:13:17.709Z,16.38
2023-05-10T07:15:19.770Z,17.40
2023-05-10T07:17:21.416Z,16.80
2023-05-10T07:19:23.089Z,17.25
2023-05-10T07:21:29.668Z,17.00
2023-05-10T07:23:31.464Z,16.48
2023-05-10T07:25:32.969Z,18.15
2023-05-10T07:27:34.709Z,16.75
2023-05-10T07:29:37.164Z,16.13
2023-05-10T07:31:38.884Z,16.85
2023-05-10T07:33:40.937Z,18.92
2023-05-10T07:35:43.367Z,17.00
2023-05-10T07:37:44.869Z,17.02
2023-05-10T07:39:46.408Z,16.63
2023-05-10T07:41:47.994Z,17.58
2023-05-10T07:43:49.574Z,15.73
2023-05-10T07:45:51.620Z,15.40
2023-05-10T07:47:54.309Z,15.68
2023-05-10T07:49:56.306Z,14.50
2023-05-10T07:51:57.877Z,14.48
2023-05-10T07:53:59.604Z,15.20
2023-05-10T07:56:33.664Z,13.05
2023-05-10T07:58:35.310Z,13.65
2023-05-10T08:00:40.257Z,14.52
2023-05-10T08:02:42.157Z,12.18
2023-05-10T08:04:43.926Z,12.43
2023-05-10T08:06:45.727Z,11.50
2023-05-10T08:08:50.488Z,11.68
2023-05-10T08:10:52.084Z,12.05
2023-05-10T08:12:53.672Z,11.77
2023-05-10T08:14:55.256Z,11.88
2023-05-10T08:16:57.237Z,13.32
2023-05-10T08:18:58.955Z,11.50
2023-05-10T08:21:00.664Z,13.80
2023-05-10T08:23:02.247Z,12.70
2023-05-10T08:25:03.977Z,12.20
2023-05-10T08:27:09.129Z,11.60
2023-05-10T08:29:10.729Z,11.95
2023-05-10T08:31:12.928Z,11.82
2023-05-10T08:33:14.581Z,11.55
2023-05-10T08:35:17.128Z,9.93
2023-05-10T08:37:18.833Z,9.40
2023-05-10T08:39:29.921Z,7.50
2023-05-10T08:41:37.287Z,7.13
2023-05-10T08:43:40.053Z,6.50
2023-05-10T08:45:48.396Z,6.93
2023-05-10T08:47:50.994Z,6.53
2023-05-10T08:49:53.589Z,6.20
2023-05-10T08:51:57.143Z,6.43
2023-05-10T08:53:59.043Z,7.13
2023-05-10T08:56:02.032Z,6.55
2023-05-10T08:58:04.851Z,7.38
2023-05-10T09:00:07.484Z,7.47
2023-05-10T09:02:12.399Z,7.10
2023-05-10T09:04:14.202Z,6.85
2023-05-10T09:06:16.721Z,7.60
2023-05-10T09:08:18.700Z,6.93
2023-05-10T09:10:21.232Z,6.00
2023-05-10T09:12:23.760Z,6.28
2023-05-10T09:14:26.251Z,6.78
2023-05-10T09:16:27.899Z,6.47
2023-05-10T09:18:29.755Z,6.45
2023-05-10T09:20:32.087Z,6.47
2023-05-10T09:22:36.842Z,5.93
2023-05-10T09:24:43.392Z,6.22
2023-05-10T09:26:52.360Z,6.18
2023-05-10T09:28:58.937Z,6.32
2023-05-10T09:31:00.575Z,6.20
2023-05-10T09:33:02.417Z,6.30
2023-05-10T09:35:31.230Z,7.40
2023-05-10T09:37:32.857Z,6.45
2023-05-10T09:39:36.318Z,8.38
2023-05-10T09:41:37.873Z,8.15
2023-05-10T09:43:39.443Z,8.80
2023-05-10T09:45:42.327Z,7.95
2023-05-10T09:47:43.990Z,7.15
2023-05-10T09:49:51.112Z,7.75
2023-05-10T09:52:08.924Z,8.23
2023-05-10T09:54:16.017Z,7.70
2023-05-10T09:56:38.571Z,7.53
2023-05-10T09:58:40.645Z,7.53
2023-05-10T10:00:46.299Z,6.43
2023-05-10T10:02:55.247Z,7.15
2023-05-10T10:05:00.635Z,6.15
2023-05-10T10:07:06.193Z,5.70
2023-05-10T10:09:08.436Z,5.70
2023-05-10T10:11:10.016Z,5.75
2023-05-10T10:13:11.608Z,4.78
2023-05-10T10:15:15.262Z,4.82
2023-05-10T10:17:18.746Z,4.28
2023-05-10T10:19:24.180Z,3.80
2023-05-10T10:21:26.042Z,3.65
2023-05-10T10:23:28.428Z,3.65
2023-05-10T10:25:30.254Z,3.40
2023-05-10T10:27:52.836Z,3.60
2023-05-10T10:30:14.467Z,3.38
2023-05-10T10:32:37.633Z,3.40
2023-05-10T10:34:40.746Z,3.97
2023-05-10T10:36:45.880Z,3.72
2023-05-10T10:38:47.364Z,4.00
2023-05-10T10:40:49.086Z,3.55
2023-05-10T10:42:54.663Z,3.65
2023-05-10T10:45:13.298Z,4.40
2023-05-10T10:47:25.492Z,4.30
2023-05-10T10:49:28.004Z,3.92
2023-05-10T10:51:30.511Z,4.25
2023-05-10T10:53:33.085Z,3.80
2023-05-10T10:55:34.796Z,4.10
2023-05-10T10:57:42.470Z,3.97
2023-05-10T10:59:47.814Z,4.10
2023-05-10T11:01:52.980Z,4.97
2023-05-10T11:04:03.714Z,4.32
2023-05-10T11:06:05.436Z,5.60
2023-05-10T11:08:17.521Z,5.10
2023-05-10T11:10:25.236Z,5.30
2023-05-10T11:12:26.786Z,6.82
2023-05-10T11:14:28.454Z,6.80
2023-05-10T11:16:42.708Z,6.97
2023-05-10T11:19:08.676Z,7.60
2023-05-10T11:21:11.698Z,9.10
2023-05-10T11:23:16.816Z,9.23
2023-05-10T11:25:18.756Z,9.63
2023-05-10T11:27:21.438Z,9.63
2023-05-10T11:29:23.395Z,9.38
2023-05-10T11:31:27.612Z,8.90
2023-05-10T11:33:29.372Z,8.75
2023-05-10T11:35:30.928Z,8.95
2023-05-10T11:37:35.159Z,9.25
2023-05-10T11:39:36.768Z,8.85
2023-05-10T11:41:38.328Z,7.90
2023-05-10T11:43:40.918Z,7.72
2023-05-10T11:45:42.495Z,6.70
2023-05-10T11:47:44.623Z,7.20
2023-05-10T11:49:47.069Z,6.65
2023-05-10T11:51:48.706Z,6.45
2023-05-10T11:53:52.270Z,6.07
2023-05-10T11:55:54.106Z,5.55
2023-05-10T11:57:55.985Z,5.95
2023-05-10T11:59:58.433Z,4.63
2023-05-10T12:02:00.387Z,5.28
2023-05-10T12:04:02.363Z,5.25
2023-05-10T12:06:04.516Z,5.10
2023-05-10T12:08:16.411Z,6.47
2023-05-10T12:10:26.552Z,6.80
2023-05-10T12:12:28.036Z,7.30
2023-05-10T12:14:34.248Z,8.05
2023-05-10T12:16:36.896Z,9.15
2023-05-10T12:18:41.287Z,8.15
2023-05-10T12:20:43.469Z,8.18
2023-05-10T12:22:52.434Z,8.82
2023-05-10T12:24:53.994Z,9.63
2023-05-10T12:26:55.627Z,7.85
2023-05-10T12:29:13.833Z,8.00
2023-05-10T12:31:15.471Z,7.35
2023-05-10T12:33:18.997Z,7.47
2023-05-10T12:35:23.007Z,7.30
2023-05-10T12:37:28.548Z,8.38
2023-05-10T12:39:44.241Z,8.00
2023-05-10T12:41:45.762Z,8.07
2023-05-10T12:43:47.451Z,8.70
2023-05-10T12:45:49.840Z,9.13
2023-05-10T12:49:53.063Z,8.95
2023-05-10T12:51:54.590Z,7.60
2023-05-10T12:53:56.515Z,7.95
2023-05-10T12:55:58.434Z,7.25
2023-05-10T12:57:59.960Z,5.95
2023-05-10T13:00:01.515Z,5.53
2023-05-10T13:02:03.065Z,5.32
2023-05-10T13:04:04.617Z,5.82
2023-05-10T13:06:07.313Z,6.82
2023-05-10T13:08:08.854Z,6.22
2023-05-10T13:10:11.425Z,5.90
2023-05-10T13:12:12.979Z,6.85
2023-05-10T13:14:15.365Z,6.95
2023-05-10T13:16:16.913Z,7.88
2023-05-10T13:18:18.594Z,7.65
2023-05-10T13:20:20.514Z,8.55
2023-05-10T13:22:32.496Z,7.35
2023-05-10T13:24:41.100Z,7.18
2023-05-10T13:26:42.632Z,8.45
2023-05-10T13:28:44.700Z,8.48
2023-05-10T13:30:46.799Z,8.25
2023-05-10T13:32:48.399Z,7.80
2023-05-10T13:34:49.904Z,7.18
2023-05-10T13:36:51.667Z,7.32
2023-05-10T13:38:53.193Z,7.13
2023-05-10T13:40:54.738Z,6.00
2023-05-10T13:42:56.245Z,5.68
2023-05-10T13:44:57.992Z,5.40
2023-05-10T13:46:59.571Z,6.07
2023-05-10T13:49:01.086Z,6.00
2023-05-10T13:51:02.561Z,6.00
2023-05-10T13:53:04.101Z,5.93
2023-05-10T13:55:05.919Z,6.03
2023-05-10T13:57:07.741Z,6.95
2023-05-10T13:59:09.335Z,5.90
2023-05-10T14:01:11.072Z,6.75
2023-05-10T14:03:12.777Z,7.40
2023-05-10T14:05:14.476Z,6.75
2023-05-10T14:07:16.004Z,7.45
2023-05-10T14:09:17.642Z,6.07
2023-05-10T14:11:19.204Z,5.28
2023-05-10T14:13:20.748Z,5.38
2023-05-10T14:15:22.463Z,5.65
2023-05-10T14:17:24.095Z,5.35
2023-05-10T14:19:25.897Z,6.20
2023-05-10T14:21:27.633Z,6.35
2023-05-10T14:23:29.868Z,5.65
2023-05-10T14:25:31.611Z,5.88
2023-05-10T14:27:33.357Z,5.95
2023-05-10T14:29:34.929Z,6.35
2023-05-10T14:31:36.794Z,6.03
2023-05-10T14:33:38.375Z,6.68
2023-05-10T14:35:40.238Z,6.13
2023-05-10T14:37:41.825Z,6.30
2023-05-10T14:39:43.784Z,5.68
2023-05-10T14:41:46.749Z,5.65
2023-05-10T14:43:48.345Z,5.30
2023-05-10T14:45:49.945Z,4.68
2023-05-10T14:47:51.586Z,5.47
2023-05-10T14:49:53.149Z,4.82
2023-05-10T14:51:54.698Z,4.28
2023-05-10T14:53:56.327Z,3.85
2023-05-10T14:56:00.494Z,4.10
2023-05-10T14:58:03.832Z,3.80
2023-05-10T15:00:06.180Z,4.07
2023-05-10T15:02:09.402Z,3.33
2023-05-10T15:04:11.349Z,3.80
2023-05-10T15:06:16.006Z,3.40
2023-05-10T15:08:17.536Z,3.47
2023-05-10T15:10:19.398Z,3.25
2023-05-10T15:12:21.396Z,3.38
2023-05-10T15:14:23.677Z,3.40
2023-05-10T15:16:25.815Z,2.88
2023-05-10T15:18:27.432Z,2.90
2023-05-10T15:20:29.126Z,2.90
2023-05-10T15:22:34.322Z,2.78
2023-05-10T15:24:36.157Z,2.60
2023-05-10T15:26:37.737Z,2.72
2023-05-10T15:28:39.262Z,2.50
2023-05-10T15:30:40.764Z,2.45
2023-05-10T15:32:42.341Z,2.42
2023-05-10T15:34:43.930Z,2.38
2023-05-10T15:36:46.010Z,1.88
2023-05-10T15:38:47.586Z,1.90
2023-05-10T15:40:49.137Z,2.00
2023-05-10T15:42:50.683Z,2.00
2023-05-10T15:44:52.272Z,1.85
2023-05-10T15:46:53.824Z,1.83
2023-05-10T15:48:55.699Z,2.00
2023-05-10T15:50:57.238Z,2.30
2023-05-10T15:52:58.771Z,1.95
2023-05-10T15:55:00.355Z,1.77
2023-05-10T15:57:01.958Z,2.08
2023-05-10T15:59:03.906Z,1.92
2023-05-10T16:01:08.787Z,2.03
2023-05-10T16:03:10.430Z,2.53
2023-05-10T16:05:12.128Z,2.20
2023-05-10T16:07:13.670Z,2.38
2023-05-10T16:09:15.675Z,2.75
2023-05-10T16:11:17.308Z,2.35
2023-05-10T16:13:18.960Z,2.60
2023-05-10T16:15:21.878Z,2.33
2023-05-10T16:17:23.559Z,2.40
2023-05-10T16:19:25.937Z,2.50
2023-05-10T16:21:32.283Z,2.80
2023-05-10T16:23:33.870Z,3.33
2023-05-10T16:25:35.714Z,2.60
2023-05-10T16:27:37.326Z,2.50
2023-05-10T16:29:38.960Z,2.40
2023-05-10T16:31:40.495Z,2.50
2023-05-10T16:33:42.079Z,2.55
2023-05-10T16:35:43.951Z,2.38
2023-05-10T16:37:45.499Z,2.53
2023-05-10T16:39:47.114Z,2.30
2023-05-10T16:41:48.663Z,2.97
2023-05-10T16:43:50.538Z,3.03
2023-05-10T16:45:52.292Z,2.63
2023-05-10T16:47:53.924Z,2.80
2023-05-10T16:49:55.471Z,3.05
2023-05-10T16:51:57.003Z,3.17
2023-05-10T16:53:58.905Z,2.85
2023-05-10T16:56:00.827Z,2.90
2023-05-10T16:58:02.992Z,2.88
2023-05-10T17:00:05.307Z,2.90
2023-05-10T17:02:07.035Z,2.75
2023-05-10T17:04:08.704Z,3.22
2023-05-10T17:06:12.063Z,3.65
2023-05-10T17:08:13.608Z,2.88
2023-05-10T17:10:15.336Z,3.90
2023-05-10T17:12:17.167Z,3.65
2023-05-10T17:14:18.713Z,3.35
2023-05-10T17:16:21.333Z,3.55
2023-05-10T17:18:23.075Z,3.35
2023-05-10T17:20:24.605Z,3.22
2023-05-10T17:22:26.132Z,3.55
2023-05-10T17:24:29.726Z,3.13
2023-05-10T17:26:31.392Z,3.67
2023-05-10T17:28:32.893Z,3.40
2023-05-10T17:30:34.448Z,3.70
2023-05-10T17:32:36.054Z,4.07
2023-05-10T17:34:38.863Z,4.95
2023-05-10T17:36:41.578Z,4.03
2023-05-10T17:38:43.495Z,5.10
2023-05-10T17:40:45.027Z,4.22
2023-05-10T17:42:46.568Z,4.47
2023-05-10T17:44:48.176Z,5.00
2023-05-10T17:46:49.713Z,4.95
2023-05-10T17:48:51.315Z,4.32
2023-05-10T17:50:52.929Z,4.85
2023-05-10T17:52:54.474Z,4.35
2023-05-10T17:54:56.015Z,4.32
2023-05-10T17:56:58.173Z,6.22
2023-05-10T17:58:59.715Z,6.75
2023-05-10T18:01:01.314Z,7.60
2023-05-10T18:03:03.727Z,7.18
2023-05-10T18:05:05.820Z,7.43
2023-05-10T18:07:07.908Z,7.32
2023-05-10T18:09:09.621Z,7.07
2023-05-10T18:11:11.144Z,7.85
2023-05-10T18:13:12.698Z,8.27
2023-05-10T18:15:14.281Z,7.93
2023-05-10T18:17:15.930Z,8.52
2023-05-10T18:19:17.512Z,8.38
2023-05-10T18:21:19.171Z,8.40
2023-05-10T18:23:20.974Z,8.45
2023-05-10T18:25:22.542Z,9.57
2023-05-10T18:27:24.371Z,9.13
2023-05-10T18:29:26.300Z,8.20
2023-05-10T18:31:27.963Z,8.20
2023-05-10T18:33:29.555Z,7.88
2023-05-10T18:35:31.278Z,8.27
2023-05-10T18:37:33.334Z,7.57
2023-05-10T18:39:35.952Z,8.40
2023-05-10T18:41:37.667Z,8.07
2023-05-10T18:43:39.236Z,8.85
2023-05-10T18:45:40.779Z,8.95
2023-05-10T18:47:42.872Z,8.55
2023-05-10T18:49:46.204Z,7.00
2023-05-10T18:51:47.753Z,7.47
2023-05-10T18:53:49.465Z,9.32
2023-05-10T18:55:58.586Z,8.65
2023-05-10T18:58:00.415Z,8.70
2023-05-10T19:00:02.022Z,9.32
2023-05-10T19:02:04.639Z,10.52
2023-05-10T19:04:06.231Z,9.55
2023-05-10T19:06:07.896Z,9.43
2023-05-10T19:08:09.519Z,10.57
2023-05-10T19:10:13.065Z,10.93
2023-05-10T19:12:14.563Z,10.65
2023-05-10T19:14:16.309Z,10.80
2023-05-10T19:16:23.385Z,10.95
2023-05-10T19:18:26.341Z,10.80
2023-05-10T19:24:35.138Z,11.02
2023-05-10T19:26:36.894Z,10.75
2023-05-10T19:28:38.478Z,11.20
2023-05-10T19:30:40.049Z,12.90
2023-05-10T19:32:44.090Z,11.13
2023-05-10T19:34:45.764Z,12.00
2023-05-10T19:36:47.389Z,11.38
2023-05-10T19:38:49.074Z,12.38
2023-05-10T19:40:57.408Z,13.27
2023-05-10T19:43:00.345Z,12.45
2023-05-10T19:45:01.921Z,12.35
2023-05-10T19:47:05.165Z,13.18
2023-05-10T19:49:06.822Z,12.75
2023-05-10T19:51:10.268Z,13.07
2023-05-10T19:53:12.088Z,13.02
2023-05-10T19:55:25.142Z,13.23
2023-05-10T19:57:27.528Z,13.95
2023-05-10T19:59:29.128Z,13.85
2023-05-10T20:01:32.718Z,14.27
2023-05-10T20:03:35.346Z,13.65
2023-05-10T20:05:36.950Z,13.45
2023-05-10T20:07:38.484Z,12.70
2023-05-10T20:09:40.106Z,12.48
2023-05-10T20:11:41.665Z,13.60
2023-05-10T20:13:43.184Z,12.75
2023-05-10T20:15:45.650Z,13.68
2023-05-10T20:17:48.544Z,13.13
2023-05-10T20:19:50.290Z,12.85
2023-05-10T20:21:51.925Z,11.15
2023-05-10T20:23:53.547Z,13.32
2023-05-10T20:25:55.223Z,12.60
2023-05-10T20:27:56.852Z,12.38
2023-05-10T20:29:58.507Z,13.02
2023-05-10T20:32:00.303Z,12.48
2023-05-10T20:34:01.856Z,12.05
2023-05-10T20:36:03.845Z,11.65
2023-05-10T20:38:05.680Z,12.05
2023-05-10T20:40:07.972Z,11.95
2023-05-10T20:42:09.622Z,11.13
2023-05-10T20:44:11.191Z,11.18
2023-05-10T20:46:12.802Z,11.07
2023-05-10T20:48:14.500Z,11.60
2023-05-10T20:50:17.138Z,11.85
2023-05-10T20:52:18.959Z,11.38
2023-05-10T20:54:22.067Z,11.55
2023-05-10T20:56:24.056Z,11.00
2023-05-10T20:58:26.881Z,10.45
2023-05-10T21:00:28.451Z,12.43
2023-05-10T21:02:30.095Z,11.52
2023-05-10T21:04:32.031Z,12.68
2023-05-10T21:06:33.623Z,12.90
2023-05-10T21:08:35.176Z,12.25
2023-05-10T21:10:36.818Z,10.93
2023-05-10T21:12:38.443Z,11.95
2023-05-10T21:14:40.112Z,12.07
2023-05-10T21:16:41.830Z,12.68
2023-05-10T21:18:43.448Z,12.02
2023-05-10T21:20:45.001Z,11.73
2023-05-10T21:22:46.570Z,10.60
2023-05-10T21:24:48.200Z,10.63
2023-05-10T21:26:49.688Z,9.70
2023-05-10T21:28:51.511Z,9.48
2023-05-10T21:30:53.060Z,9.18
2023-05-10T21:32:59.505Z,10.15
2023-05-10T21:35:01.245Z,10.07
2023-05-10T21:37:02.783Z,10.23
2023-05-10T21:39:04.337Z,9.02
2023-05-10T21:41:08.758Z,9.60
2023-05-10T21:43:11.251Z,9.63
2023-05-10T21:45:12.987Z,9.35
2023-05-10T21:47:14.514Z,9.70
2023-05-10T21:49:16.043Z,9.93
2023-05-10T21:51:17.661Z,10.27
2023-05-10T21:53:19.709Z,9.77
2023-05-10T21:55:21.322Z,9.07
2023-05-10T21:57:22.926Z,9.73
2023-05-10T21:59:24.620Z,9.65
2023-05-10T22:01:26.238Z,9.35
2023-05-10T22:03:28.004Z,10.18
2023-05-10T22:05:29.853Z,10.00
2023-05-10T22:07:32.320Z,9.93
2023-05-10T22:09:33.837Z,9.63
2023-05-10T22:11:35.426Z,9.02
2023-05-10T22:13:36.921Z,9.63
2023-05-10T22:15:38.466Z,9.05
2023-05-10T22:17:40.588Z,10.20
2023-05-10T22:19:42.392Z,9.15
2023-05-10T22:21:44.007Z,10.15
2023-05-10T22:23:45.543Z,9.52
2023-05-10T22:25:47.049Z,10.38
2023-05-10T22:27:48.800Z,10.50
2023-05-10T22:29:50.306Z,9.07
2023-05-10T22:31:51.886Z,9.80
2023-05-10T22:33:53.379Z,8.77
2023-05-10T22:35:54.969Z,9.40
2023-05-10T22:37:56.582Z,9.75
2023-05-10T22:39:58.093Z,9.57
2023-05-10T22:41:59.669Z,10.07
2023-05-10T22:46:29.298Z,9.65
2023-05-10T22:48:34.100Z,9.95
2023-05-10T22:50:37.132Z,10.52
2023-05-10T22:52:39.420Z,9.50
2023-05-10T22:54:40.945Z,10.02
2023-05-10T22:56:42.659Z,9.73
2023-05-10T22:58:44.276Z,10.20
2023-05-10T23:00:45.806Z,10.32
2023-05-10T23:02:47.422Z,10.70
2023-05-10T23:04:49.261Z,10.88
2023-05-10T23:06:50.844Z,10.40
2023-05-10T23:08:52.410Z,11.02
2023-05-10T23:10:53.966Z,9.85
2023-05-10T23:12:56.120Z,9.75
2023-05-10T23:14:57.653Z,11.63
2023-05-10T23:16:59.206Z,10.63
2023-05-10T23:19:00.762Z,10.23
2023-05-10T23:21:02.412Z,10.55
2023-05-10T23:23:03.993Z,10.60
2023-05-10T23:25:06.014Z,10.68
2023-05-10T23:27:07.656Z,11.93
2023-05-10T23:29:09.214Z,11.23
2023-05-10T23:31:11.097Z,10.63
2023-05-10T23:33:14.255Z,10.93
2023-05-10T23:35:16.005Z,11.45
2023-05-10T23:37:17.552Z,11.40
2023-05-10T23:39:19.090Z,10.90
2023-05-10T23:41:20.647Z,11.00
2023-05-10T23:43:22.318Z,11.77
2023-05-10T23:45:23.861Z,11.57
2023-05-10T23:47:25.604Z,11.90
2023-05-10T23:49:27.358Z,11.35
2023-05-10T23:51:28.888Z,12.40
2023-05-10T23:53:30.612Z,11.18
2023-05-10T23:55:32.103Z,11.27
2023-05-10T23:57:33.672Z,12.57
2023-05-10T23:59:35.194Z,12.43
